Time;durP1;ratioP1;P1;durP2;ratioP2;P2;SDS_P1;SDS_P2;PMS_P1;PMS_P2;Temp;Humidity;BMP_temperature;BMP_pressure;BME280_temperature;BME280_humidity;BME280_pressure;Samples;Min_cycle;Max_cycle;Signal;HPM_P1;HPM_P2
2022/08/08 00:01:21;;;;;;;5.97;2.00;;;20.20;99.90;;;;;;5009977;28;20104;-77
2022/08/08 00:04:26;;;;;;;2.97;1.77;;;20.20;99.90;;;;;;5009784;28;20050;-77
2022/08/08 00:07:03;;;;;;;1.55;1.45;;;20.20;99.90;;;;;;5009936;28;20050;-76
2022/08/08 00:09:53;;;;;;;1.73;1.30;;;20.20;99.90;;;;;;5009661;28;20134;-76
2022/08/08 00:12:34;;;;;;;3.13;1.83;;;20.20;99.90;;;;;;5009503;28;20511;-76
2022/08/08 00:15:22;;;;;;;1.40;1.30;;;20.10;99.90;;;;;;5010559;28;20141;-77
2022/08/08 00:18:19;;;;;;;2.13;1.30;;;20.10;99.90;;;;;;5009775;28;20507;-76
2022/08/08 00:20:55;;;;;;;1.88;1.50;;;20.10;99.90;;;;;;5012564;28;20054;-76
2022/08/08 00:23:35;;;;;;;2.97;1.30;;;20.00;99.90;;;;;;5006056;28;20054;-76
2022/08/08 00:26:21;;;;;;;4.10;1.35;;;20.10;99.90;;;;;;5014289;28;20054;-76
2022/08/08 00:29:06;;;;;;;2.70;1.48;;;20.00;99.90;;;;;;5013266;28;20073;-76
2022/08/08 00:31:38;;;;;;;2.25;1.60;;;20.00;99.90;;;;;;5012685;28;20053;-77
2022/08/08 00:35:11;;;;;;;2.30;1.85;;;20.00;99.90;;;;;;5013342;28;20050;-76
2022/08/08 00:38:41;;;;;;;3.47;1.92;;;20.00;99.90;;;;;;5012317;28;20100;-76
2022/08/08 00:41:32;;;;;;;2.25;1.48;;;20.00;99.90;;;;;;4939146;29;20425;-76
2022/08/08 00:44:38;;;;;;;2.22;1.90;;;20.00;99.90;;;;;;4959925;28;20051;-76
2022/08/08 00:47:30;;;;;;;2.50;1.67;;;20.00;99.90;;;;;;5009779;28;20518;-77
2022/08/08 00:50:19;;;;;;;2.97;1.60;;;19.90;99.90;;;;;;5023805;28;20046;-76
2022/08/08 00:53:08;;;;;;;3.50;1.75;;;19.90;99.90;;;;;;5009847;28;20153;-76
2022/08/08 00:56:03;;;;;;;2.72;1.45;;;19.90;99.90;;;;;;5012464;28;20046;-76
2022/08/08 00:59:09;;;;;;;4.80;1.38;;;19.90;99.90;;;;;;5023157;28;20148;-76
2022/08/08 01:01:56;;;;;;;1.67;1.58;;;19.90;99.90;;;;;;5001521;28;20045;-76
2022/08/08 01:05:00;;;;;;;1.50;1.40;;;19.90;99.90;;;;;;5013842;28;20049;-76
2022/08/08 01:07:48;;;;;;;3.17;1.33;;;19.90;99.90;;;;;;5011828;28;20046;-77
2022/08/08 01:10:41;;;;;;;2.65;2.00;;;19.90;99.90;;;;;;5012313;28;20049;-77
2022/08/08 01:13:29;;;;;;;3.20;1.63;;;19.90;99.90;;;;;;5012586;28;20046;-77
2022/08/08 01:16:36;;;;;;;1.75;1.65;;;19.90;99.90;;;;;;5011231;28;20046;-76
2022/08/08 01:19:34;;;;;;;2.30;1.67;;;19.90;99.90;;;;;;5012998;28;20467;-76
2022/08/08 01:22:46;;;;;;;8.35;2.00;;;19.80;99.90;;;;;;5012858;28;20042;-76
2022/08/08 01:25:59;;;;;;;4.63;1.48;;;19.80;99.90;;;;;;5010507;28;20152;-76
2022/08/08 01:28:56;;;;;;;4.35;1.73;;;19.70;99.90;;;;;;5008294;28;20045;-76
2022/08/08 01:31:50;;;;;;;2.53;1.70;;;19.60;99.90;;;;;;5011470;28;20050;-75
2022/08/08 01:34:59;;;;;;;2.78;1.88;;;19.60;99.90;;;;;;5012625;28;20057;-76
2022/08/08 01:37:55;;;;;;;4.55;1.98;;;19.50;99.90;;;;;;5012918;28;20078;-76
2022/08/08 01:40:45;;;;;;;4.75;1.60;;;19.50;99.90;;;;;;5010351;28;20049;-76
2022/08/08 01:43:30;;;;;;;4.57;1.83;;;19.40;99.90;;;;;;5013209;28;20046;-76
2022/08/08 01:46:35;;;;;;;5.13;1.63;;;19.40;99.90;;;;;;5013152;28;20054;-76
2022/08/08 01:49:46;;;;;;;3.92;1.73;;;19.20;99.90;;;;;;5012387;28;20092;-76
2022/08/08 01:53:06;;;;;;;2.05;1.85;;;19.10;99.90;;;;;;5010041;28;20088;-76
2022/08/08 01:56:14;;;;;;;3.72;1.50;;;19.20;99.90;;;;;;5009191;28;20056;-76
2022/08/08 01:59:33;;;;;;;2.05;1.67;;;19.20;99.90;;;;;;5011515;28;20564;-76
2022/08/08 02:02:42;;;;;;;2.80;1.60;;;19.20;99.90;;;;;;5012684;28;20056;-76
2022/08/08 02:05:28;;;;;;;3.30;1.70;;;19.10;99.90;;;;;;5014794;28;20058;-76
2022/08/08 02:08:31;;;;;;;1.95;1.75;;;19.10;99.90;;;;;;5015803;28;20072;-75
2022/08/08 02:11:38;;;;;;;2.55;1.98;;;19.10;99.90;;;;;;5016123;28;20125;-76
2022/08/08 02:14:47;;;;;;;4.43;1.80;;;18.90;99.90;;;;;;5018985;28;20054;-75
2022/08/08 02:17:34;;;;;;;2.08;1.73;;;18.90;99.90;;;;;;5018895;28;20084;-76
2022/08/08 02:20:27;;;;;;;2.65;1.75;;;18.80;99.90;;;;;;5014878;28;20045;-76
2022/08/08 02:23:26;;;;;;;3.65;1.98;;;18.80;99.90;;;;;;5018720;28;20054;-75
2022/08/08 02:26:23;;;;;;;2.60;1.65;;;18.00;99.90;;;;;;5017790;28;20136;-77
2022/08/08 02:29:28;;;;;;;3.03;1.90;;;18.70;99.90;;;;;;5014173;28;20073;-76
2022/08/08 02:32:12;;;;;;;2.47;1.58;;;18.70;99.90;;;;;;5004485;28;20050;-76
2022/08/08 02:34:54;;;;;;;2.42;1.60;;;18.70;99.90;;;;;;5010824;28;20460;-76
2022/08/08 02:37:58;;;;;;;6.78;2.00;;;18.70;99.90;;;;;;5012165;28;20100;-76
2022/08/08 02:40:43;;;;;;;2.38;1.67;;;18.70;99.90;;;;;;5011875;28;20054;-76
2022/08/08 02:43:37;;;;;;;6.40;1.67;;;18.60;99.90;;;;;;5011782;28;20046;-76
2022/08/08 02:46:54;;;;;;;4.63;1.88;;;18.60;99.90;;;;;;5017261;28;20132;-76
2022/08/08 02:49:46;;;;;;;3.08;1.73;;;18.50;99.90;;;;;;5020846;28;20133;-76
2022/08/08 02:52:47;;;;;;;1.92;1.70;;;18.50;99.90;;;;;;5021099;28;20140;-76
2022/08/08 02:55:41;;;;;;;2.28;1.88;;;18.50;99.90;;;;;;5023790;28;20149;-76
2022/08/08 02:59:00;;;;;;;3.45;1.80;;;18.50;99.90;;;;;;5018462;28;20053;-77
2022/08/08 03:02:32;;;;;;;1.80;1.70;;;18.50;99.90;;;;;;5016901;28;20076;-76
2022/08/08 03:05:17;;;;;;;4.32;2.05;;;18.50;99.90;;;;;;4924538;29;20113;-76
2022/08/08 03:08:11;;;;;;;2.10;1.90;;;18.50;99.90;;;;;;4951014;29;20139;-76
2022/08/08 03:11:01;;;;;;;2.35;2.00;;;18.50;99.90;;;;;;5006705;28;20081;-77
2022/08/08 03:13:33;;;;;;;1.95;1.70;;;18.30;99.90;;;;;;4984773;28;20508;-76
2022/08/08 03:16:27;;;;;;;5.22;1.98;;;18.20;99.90;;;;;;5011372;28;20042;-78
2022/08/08 03:19:37;;;;;;;2.42;1.88;;;18.20;99.90;;;;;;5010453;28;20073;-76
2022/08/08 03:22:03;;;;;;;3.50;2.40;;;18.20;99.90;;;;;;5009653;28;20125;-76
2022/08/08 03:24:51;;;;;;;2.58;1.85;;;18.20;99.90;;;;;;5011159;28;20518;-76
2022/08/08 03:27:29;;;;;;;4.50;2.20;;;18.10;99.90;;;;;;5009489;28;20042;-76
2022/08/08 03:30:10;;;;;;;2.20;2.00;;;18.10;99.90;;;;;;5010243;28;20053;-75
2022/08/08 03:35:51;;;;;;;3.13;2.10;;;17.90;99.90;;;;;;5009996;28;20045;-76
2022/08/08 03:38:22;;;;;;;5.00;2.22;;;17.80;99.90;;;;;;5010026;28;20443;-76
2022/08/08 03:41:09;;;;;;;2.58;2.33;;;18.00;99.90;;;;;;5010740;28;20056;-75
2022/08/08 03:43:57;;;;;;;3.75;1.80;;;18.00;99.90;;;;;;5011059;28;20054;-76
2022/08/08 03:46:26;;;;;;;2.30;2.03;;;18.00;99.90;;;;;;5011262;28;20152;-75
2022/08/08 03:49:00;;;;;;;2.60;2.25;;;18.00;99.90;;;;;;5010827;28;20526;-75
2022/08/08 03:51:52;;;;;;;2.67;2.15;;;17.90;99.90;;;;;;5011188;28;20054;-76
2022/08/08 03:54:19;;;;;;;2.38;2.17;;;17.90;99.90;;;;;;5008206;28;20050;-76
2022/08/08 03:57:14;;;;;;;2.50;2.10;;;17.90;99.90;;;;;;5014686;28;20045;-76
2022/08/08 04:00:07;;;;;;;2.38;2.10;;;17.90;99.90;;;;;;5012995;28;20050;-75
2022/08/08 04:02:38;;;;;;;2.22;1.95;;;17.90;99.90;;;;;;5014143;28;20100;-76
2022/08/08 04:05:13;;;;;;;3.63;2.50;;;17.90;99.90;;;;;;5014845;28;20141;-76
2022/08/08 04:07:45;;;;;;;2.40;2.10;;;18.00;99.90;;;;;;5021504;28;20413;-76
2022/08/08 04:10:11;;;;;;;4.03;2.05;;;18.20;99.90;;;;;;5013242;28;20448;-76
2022/08/08 04:12:40;;;;;;;3.30;2.50;;;17.90;99.90;;;;;;5014727;28;20136;-75
2022/08/08 04:15:07;;;;;;;7.07;2.78;;;17.80;99.90;;;;;;5012957;28;20045;-75
2022/08/08 04:17:36;;;;;;;2.67;2.15;;;17.70;99.90;;;;;;5009167;28;20053;-75
2022/08/08 04:20:23;;;;;;;3.47;2.08;;;17.60;99.90;;;;;;5010705;28;20111;-75
2022/08/08 04:22:54;;;;;;;2.58;2.30;;;17.60;99.90;;;;;;5012580;28;20046;-76
2022/08/08 04:25:22;;;;;;;2.17;1.98;;;17.60;99.90;;;;;;5014253;28;20042;-76
2022/08/08 04:27:58;;;;;;;4.05;2.38;;;17.50;99.90;;;;;;5021076;28;20057;-76
2022/08/08 04:30:47;;;;;;;5.95;2.00;;;17.40;99.90;;;;;;5013196;28;20050;-75
2022/08/08 04:33:13;;;;;;;3.30;2.33;;;17.40;99.90;;;;;;5014255;28;20081;-75
2022/08/08 04:35:41;;;;;;;5.30;2.45;;;17.50;99.90;;;;;;5011599;28;20081;-75
2022/08/08 04:38:17;;;;;;;4.93;2.22;;;17.40;99.90;;;;;;5007528;28;20113;-76
2022/08/08 04:40:48;;;;;;;2.72;2.03;;;17.40;99.90;;;;;;5012330;28;20412;-76
2022/08/08 04:43:21;;;;;;;2.22;2.03;;;17.30;99.90;;;;;;5013991;28;20450;-76
2022/08/08 04:46:08;;;;;;;4.80;2.50;;;17.30;99.90;;;;;;5011879;28;20058;-75
2022/08/08 04:48:35;;;;;;;3.42;2.50;;;17.20;99.90;;;;;;5013560;28;20129;-75
2022/08/08 04:51:02;;;;;;;2.47;2.13;;;17.20;99.90;;;;;;5013641;28;20045;-75
2022/08/08 04:53:29;;;;;;;2.20;2.00;;;17.40;99.90;;;;;;5014015;28;20463;-75
2022/08/08 04:56:16;;;;;;;3.00;2.22;;;17.40;99.90;;;;;;5011885;28;20057;-75
2022/08/08 04:58:43;;;;;;;2.35;2.15;;;17.40;99.90;;;;;;5013115;28;20137;-75
2022/08/08 05:01:13;;;;;;;2.22;2.03;;;17.40;99.90;;;;;;5011438;28;20084;-75
2022/08/08 05:03:41;;;;;;;2.45;2.25;;;17.40;99.90;;;;;;5010351;28;20041;-76
2022/08/08 05:06:28;;;;;;;2.47;2.08;;;17.50;99.90;;;;;;5011860;28;20046;-76
2022/08/08 05:08:56;;;;;;;3.22;2.47;;;17.60;99.90;;;;;;5011779;28;20132;-75
2022/08/08 05:11:28;;;;;;;3.78;1.90;;;17.70;99.90;;;;;;5012710;28;20053;-76
2022/08/08 05:14:04;;;;;;;2.25;1.90;;;17.70;99.90;;;;;;5012718;28;20046;-76
2022/08/08 05:16:32;;;;;;;2.58;1.98;;;17.80;99.90;;;;;;5013152;28;20443;-76
2022/08/08 05:19:19;;;;;;;3.40;1.85;;;17.90;99.90;;;;;;5012601;28;20056;-76
2022/08/08 05:22:09;;;;;;;3.25;2.00;;;17.90;99.90;;;;;;5013066;28;20048;-76
2022/08/08 05:24:36;;;;;;;;;;;18.00;99.90;;;;;;5013769;28;20069;-75
2022/08/08 05:27:04;;;;;;;3.90;2.03;;;18.00;99.90;;;;;;5011637;28;19925;-76
2022/08/08 05:29:31;;;;;;;3.20;2.05;;;18.00;99.90;;;;;;5012813;28;20058;-76
2022/08/08 05:32:02;;;;;;;1.80;1.70;;;18.00;99.90;;;;;;5012607;28;20129;-77
2022/08/08 05:34:54;;;;;;;4.10;2.17;;;18.00;99.90;;;;;;5013340;28;20053;-76
2022/08/08 05:37:29;;;;;;;5.18;2.20;;;18.00;99.90;;;;;;5011303;28;20711;-76
2022/08/08 05:40:16;;;;;;;3.03;2.00;;;18.00;99.90;;;;;;5008989;28;20063;-77
2022/08/08 05:42:52;;;;;;;2.35;2.00;;;18.10;99.90;;;;;;5011250;28;20137;-76
2022/08/08 05:45:20;;;;;;;6.43;2.60;;;18.20;99.90;;;;;;5022700;28;20038;-76
2022/08/08 05:47:59;;;;;;;3.35;2.20;;;18.10;99.90;;;;;;5012515;28;20054;-76
2022/08/08 05:50:35;;;;;;;5.32;2.03;;;18.20;99.90;;;;;;5010121;28;20526;-77
2022/08/08 05:53:02;;;;;;;3.97;1.80;;;18.20;99.90;;;;;;5007696;28;20057;-77
2022/08/08 05:55:54;;;;;;;2.50;2.30;;;18.30;99.90;;;;;;5010520;28;20046;-77
2022/08/08 05:58:40;;;;;;;3.05;2.25;;;18.30;99.90;;;;;;5012112;28;20492;-76
2022/08/08 06:01:28;;;;;;;2.85;1.88;;;18.40;99.90;;;;;;5012573;28;20045;-76
2022/08/08 06:04:17;;;;;;;5.13;2.40;;;18.40;99.90;;;;;;5012363;28;20046;-76
2022/08/08 06:06:51;;;;;;;4.90;1.70;;;18.40;99.90;;;;;;5012392;28;20482;-76
2022/08/08 06:09:27;;;;;;;3.67;1.92;;;18.50;99.90;;;;;;5012017;28;20520;-76
2022/08/08 06:12:14;;;;;;;3.47;1.70;;;18.50;99.90;;;;;;5012366;28;20057;-76
2022/08/08 06:14:55;;;;;;;;;;;18.60;99.90;;;;;;5011009;28;20054;-76
2022/08/08 06:17:25;;;;;;;7.75;1.63;;;18.60;99.90;;;;;;5011992;28;19925;-76
2022/08/08 06:20:12;;;;;;;3.80;1.80;;;18.60;99.90;;;;;;5011775;28;20078;-76
2022/08/08 06:22:41;;;;;;;2.55;1.90;;;18.60;99.90;;;;;;5012016;28;20551;-76
2022/08/08 06:25:08;;;;;;;3.72;2.10;;;18.60;99.90;;;;;;5011912;28;20096;-75
2022/08/08 06:28:13;;;;;;;6.20;1.88;;;18.70;99.90;;;;;;5011983;28;20061;-76
2022/08/08 06:30:43;;;;;;;3.78;1.90;;;18.70;99.90;;;;;;5002976;28;20100;-76
2022/08/08 06:33:11;;;;;;;1.88;1.67;;;18.70;99.90;;;;;;5012154;28;20057;-75
2022/08/08 06:35:47;;;;;;;4.32;1.60;;;18.80;99.90;;;;;;5011789;28;20054;-76
2022/08/08 06:38:36;;;;;;;3.92;1.75;;;18.80;99.90;;;;;;5011644;28;20056;-76
2022/08/08 06:41:06;;;;;;;;;;;18.80;99.90;;;;;;5012059;28;20082;-76
2022/08/08 06:43:35;;;;;;;4.20;1.58;;;18.90;99.90;;;;;;5008945;28;20299;-76
2022/08/08 06:46:04;;;;;;;3.70;1.80;;;18.90;99.90;;;;;;5024611;28;20077;-76
2022/08/08 06:48:38;;;;;;;4.70;1.50;;;18.80;99.90;;;;;;5009403;28;20054;-76
2022/08/08 06:51:10;;;;;;;4.22;1.38;;;18.80;99.90;;;;;;5011613;28;20057;-75
2022/08/08 06:53:37;;;;;;;4.63;1.23;;;18.90;99.90;;;;;;5008628;28;20558;-76
2022/08/08 06:56:07;;;;;;;3.53;1.52;;;18.90;99.90;;;;;;5011760;28;20046;-76
2022/08/08 06:58:35;;;;;;;3.10;1.33;;;18.90;99.90;;;;;;5010878;28;20054;-75
2022/08/08 07:01:07;;;;;;;2.90;1.60;;;18.90;99.90;;;;;;5011566;28;20046;-77
2022/08/08 07:04:03;;;;;;;2.03;1.48;;;19.00;99.90;;;;;;5011728;28;20061;-76
2022/08/08 07:06:55;;;;;;;2.95;1.35;;;18.90;99.90;;;;;;5011131;28;20049;-76
2022/08/08 07:09:34;;;;;;;2.40;1.83;;;19.00;99.90;;;;;;5011202;28;20097;-75
2022/08/08 07:12:34;;;;;;;5.25;1.83;;;19.00;99.90;;;;;;5011251;28;20056;-76
2022/08/08 07:15:05;;;;;;;3.13;1.83;;;19.40;99.90;;;;;;5010061;28;20089;-76
2022/08/08 07:17:49;;;;;;;2.70;1.80;;;19.10;99.90;;;;;;5009651;28;20397;-76
2022/08/08 07:20:38;;;;;;;2.03;1.70;;;19.20;99.90;;;;;;5010512;28;20046;-76
2022/08/08 07:23:27;;;;;;;1.98;1.60;;;19.20;99.90;;;;;;5010964;28;20468;-76
2022/08/08 07:26:15;;;;;;;1.60;1.50;;;19.30;99.90;;;;;;5011252;28;20056;-76
2022/08/08 07:28:55;;;;;;;4.57;1.95;;;19.30;99.90;;;;;;5011306;28;20054;-76
2022/08/08 07:31:23;;;;;;;2.22;1.52;;;19.30;99.90;;;;;;5014409;28;20058;-76
2022/08/08 07:33:53;;;;;;;2.17;1.58;;;19.30;99.90;;;;;;5015258;28;20104;-76
2022/08/08 07:36:26;;;;;;;3.47;1.38;;;19.40;99.90;;;;;;5015345;28;20054;-76
2022/08/08 07:38:57;;;;;;;2.65;1.58;;;19.40;99.90;;;;;;5015126;28;20073;-76
2022/08/08 07:41:31;;;;;;;5.13;1.30;;;19.40;99.90;;;;;;5014030;28;20154;-76
2022/08/08 07:44:18;;;;;;;5.07;1.40;;;19.50;99.90;;;;;;5015249;28;20049;-76
2022/08/08 07:47:05;;;;;;;1.88;1.17;;;19.50;99.90;;;;;;5013993;28;20060;-76
2022/08/08 07:49:32;;;;;;;1.77;1.02;;;19.60;99.90;;;;;;5014869;28;20057;-76
2022/08/08 07:52:01;;;;;;;2.00;1.23;;;19.60;99.90;;;;;;5014725;28;20081;-76
2022/08/08 07:54:56;;;;;;;3.45;1.45;;;19.60;99.90;;;;;;5021032;28;20140;-76
2022/08/08 07:57:26;;;;;;;4.78;1.20;;;19.60;99.90;;;;;;5013716;28;20065;-76
2022/08/08 08:00:05;;;;;;;2.55;1.25;;;19.70;99.90;;;;;;5013714;28;20073;-76
2022/08/08 08:02:49;;;;;;;1.35;0.98;;;19.70;99.90;;;;;;5014122;28;20046;-76
2022/08/08 08:05:23;;;;;;;2.88;1.20;;;19.70;99.90;;;;;;5014748;28;20092;-76
2022/08/08 08:08:09;;;;;;;1.48;1.20;;;19.80;99.90;;;;;;5014289;28;20050;-76
2022/08/08 08:10:37;;;;;;;2.20;1.45;;;19.90;99.90;;;;;;5011962;28;20084;-76
2022/08/08 08:13:33;;;;;;;5.85;1.20;;;19.90;99.90;;;;;;5012773;28;20056;-76
2022/08/08 08:16:28;;;;;;;3.05;1.25;;;20.00;99.90;;;;;;5013187;28;20046;-75
2022/08/08 08:19:09;;;;;;;4.45;1.30;;;20.10;99.90;;;;;;5013444;28;20054;-76
2022/08/08 08:21:43;;;;;;;2.47;0.98;;;20.20;99.90;;;;;;5013321;28;20754;-76
2022/08/08 08:24:24;;;;;;;1.77;0.95;;;20.20;99.90;;;;;;5013714;28;20041;-77
2022/08/08 08:26:57;;;;;;;2.88;1.10;;;20.30;99.90;;;;;;5014281;28;20500;-77
2022/08/08 08:29:25;;;;;;;2.05;1.50;;;20.30;99.90;;;;;;5014135;28;20054;-76
2022/08/08 08:31:55;;;;;;;1.35;1.15;;;20.40;99.90;;;;;;5014036;28;20049;-77
2022/08/08 08:34:29;;;;;;;3.70;1.20;;;20.50;99.90;;;;;;5013584;28;20058;-76
2022/08/08 08:37:01;;;;;;;2.72;0.98;;;20.50;99.90;;;;;;5014260;28;20046;-77
2022/08/08 08:39:35;;;;;;;4.70;1.02;;;20.60;99.90;;;;;;5013729;28;20054;-77
2022/08/08 08:42:25;;;;;;;3.85;1.10;;;20.70;99.90;;;;;;5013617;28;20056;-76
2022/08/08 08:45:04;;;;;;;3.97;1.33;;;20.70;99.90;;;;;;5012445;28;20124;-76
2022/08/08 08:47:50;;;;;;;1.75;1.00;;;20.80;99.90;;;;;;5013803;28;20057;-77
2022/08/08 08:50:20;;;;;;;1.73;1.00;;;20.90;99.90;;;;;;5013904;28;20053;-76
2022/08/08 08:53:06;;;;;;;1.55;0.90;;;21.00;99.90;;;;;;5012345;28;20049;-77
2022/08/08 08:55:54;;;;;;;1.88;1.10;;;21.00;99.90;;;;;;5013391;28;20065;-77
2022/08/08 08:58:43;;;;;;;1.08;0.70;;;21.10;99.90;;;;;;5012014;28;20511;-75
2022/08/08 09:01:27;;;;;;;1.67;0.90;;;21.20;99.90;;;;;;5013734;28;20054;-75
2022/08/08 09:04:00;;;;;;;1.40;1.10;;;21.20;99.90;;;;;;5013544;28;20096;-75
2022/08/08 09:06:31;;;;;;;1.35;0.88;;;21.30;99.90;;;;;;5012723;28;20108;-75
2022/08/08 09:09:33;;;;;;;2.97;1.05;;;21.40;99.90;;;;;;5013129;28;20096;-77
2022/08/08 09:12:08;;;;;;;1.70;0.82;;;21.40;99.90;;;;;;5001990;28;20077;-75
2022/08/08 09:14:36;;;;;;;1.80;1.15;;;21.50;99.90;;;;;;5011549;28;20104;-75
2022/08/08 09:17:09;;;;;;;6.20;1.48;;;21.60;99.90;;;;;;5010857;28;20045;-75
2022/08/08 09:19:44;;;;;;;4.80;1.15;;;21.70;99.90;;;;;;5013312;28;20059;-77
2022/08/08 09:22:33;;;;;;;3.25;1.17;;;21.70;99.90;;;;;;5023066;28;20048;-75
2022/08/08 09:25:01;;;;;;;1.83;0.85;;;21.80;99.90;;;;;;5013445;28;20475;-75
2022/08/08 09:27:29;;;;;;;2.28;0.98;;;21.90;99.90;;;;;;5013404;28;20050;-75
2022/08/08 09:30:16;;;;;;;2.80;1.02;;;22.00;99.90;;;;;;5011290;28;20057;-75
2022/08/08 09:32:48;;;;;;;1.53;1.10;;;22.10;99.90;;;;;;5013502;28;20053;-76
2022/08/08 09:35:38;;;;;;;3.85;1.17;;;22.00;99.90;;;;;;5012951;28;20542;-76
2022/08/08 09:38:47;;;;;;;8.57;1.97;;;22.10;99.90;;;;;;5010559;28;20069;-77
2022/08/08 09:41:40;;;;;;;2.85;1.10;;;22.20;99.90;;;;;;5012582;28;20389;-77
2022/08/08 09:44:54;;;;;;;6.25;1.42;;;22.30;99.90;;;;;;5012704;28;20125;-77
2022/08/08 09:47:23;;;;;;;4.88;1.20;;;22.40;99.90;;;;;;5012989;28;20136;-77
2022/08/08 09:50:26;;;;;;;6.65;1.13;;;22.40;99.90;;;;;;5012792;28;20068;-77
2022/08/08 09:52:54;;;;;;;3.45;1.02;;;22.50;99.90;;;;;;5012019;28;20054;-77
2022/08/08 09:55:26;;;;;;;1.10;0.90;;;22.70;99.90;;;;;;5012859;28;20513;-76
2022/08/08 09:58:15;;;;;;;4.22;1.17;;;22.90;99.90;;;;;;5012270;28;20056;-77
2022/08/08 10:01:05;;;;;;;2.35;1.20;;;23.00;99.90;;;;;;5012572;28;20061;-76
2022/08/08 10:03:56;;;;;;;2.22;1.20;;;23.10;99.90;;;;;;5012732;28;20121;-77
2022/08/08 10:06:28;;;;;;;8.25;1.08;;;23.10;99.90;;;;;;5012445;28;20508;-77
2022/08/08 10:08:58;;;;;;;6.78;1.40;;;23.10;99.90;;;;;;5012298;28;20128;-77
2022/08/08 10:11:25;;;;;;;3.50;1.15;;;23.20;99.90;;;;;;5012239;28;20081;-77
2022/08/08 10:14:12;;;;;;;4.25;1.00;;;23.30;99.90;;;;;;5011724;28;20046;-77
2022/08/08 10:17:05;;;;;;;3.58;1.45;;;23.40;99.90;;;;;;5012592;28;20053;-77
2022/08/08 10:19:57;;;;;;;3.70;1.20;;;23.50;99.90;;;;;;5012541;28;20395;-77
2022/08/08 10:22:30;;;;;;;3.25;1.10;;;23.60;99.90;;;;;;5012273;28;20090;-76
2022/08/08 10:25:03;;;;;;;2.00;1.15;;;23.60;99.90;;;;;;5012317;28;20042;-77
2022/08/08 10:27:42;;;;;;;2.88;1.00;;;23.70;99.90;;;;;;5012260;28;20085;-77
2022/08/08 10:30:10;;;;;;;3.08;1.08;;;23.70;99.90;;;;;;5011570;28;20096;-77
2022/08/08 10:32:48;;;;;;;5.40;1.23;;;23.80;99.90;;;;;;5012233;28;20699;-77
2022/08/08 10:35:21;;;;;;;2.13;1.05;;;23.90;99.90;;;;;;5010718;28;20054;-77
2022/08/08 10:38:14;;;;;;;3.13;0.90;;;23.90;99.90;;;;;;5011608;28;20050;-77
2022/08/08 10:40:44;;;;;;;3.47;1.10;;;24.10;99.90;;;;;;5011535;28;20121;-77
2022/08/08 10:43:11;;;;;;;2.70;0.85;;;24.20;99.90;;;;;;5011925;28;20096;-77
2022/08/08 10:45:44;;;;;;;3.05;1.00;;;24.30;99.90;;;;;;5011899;28;20427;-77
2022/08/08 10:48:33;;;;;;;2.97;0.90;;;24.30;99.90;;;;;;5010606;28;20145;-76
2022/08/08 10:51:28;;;;;;;2.58;0.80;;;24.40;99.90;;;;;;5011504;28;20064;-77
2022/08/08 10:54:06;;;;;;;1.92;1.10;;;24.60;99.90;;;;;;5011841;28;20081;-76
2022/08/08 10:56:34;;;;;;;3.95;1.30;;;24.70;99.90;;;;;;5011566;28;20084;-77
2022/08/08 10:59:09;;;;;;;6.53;1.15;;;24.80;99.90;;;;;;5010285;28;20061;-77
2022/08/08 11:01:45;;;;;;;4.55;0.85;;;25.00;99.90;;;;;;5010332;28;20085;-77
2022/08/08 11:04:21;;;;;;;7.05;1.02;;;24.90;99.90;;;;;;5009571;28;20088;-76
2022/08/08 11:07:04;;;;;;;4.70;1.23;;;24.90;99.90;;;;;;5011739;28;20045;-76
2022/08/08 11:09:32;;;;;;;3.88;1.00;;;25.00;99.90;;;;;;5010977;28;20488;-77
2022/08/08 11:12:01;;;;;;;1.38;0.93;;;25.10;99.90;;;;;;5008712;28;20088;-77
2022/08/08 11:14:55;;;;;;;0.80;0.80;;;25.00;99.90;;;;;;5010724;28;20168;-77
2022/08/08 11:17:25;;;;;;;3.78;1.05;;;25.30;99.90;;;;;;5010934;28;20050;-77
2022/08/08 11:20:19;;;;;;;3.17;1.42;;;25.50;99.90;;;;;;5011246;28;20050;-77
2022/08/08 11:22:55;;;;;;;2.22;1.23;;;25.50;99.90;;;;;;5010861;28;20046;-77
2022/08/08 11:25:29;;;;;;;2.55;1.20;;;25.50;99.90;;;;;;5010050;28;20076;-77
2022/08/08 11:28:23;;;;;;;3.15;1.42;;;25.50;99.90;;;;;;5010914;28;20049;-77
2022/08/08 11:30:54;;;;;;;1.67;0.75;;;25.50;99.90;;;;;;5009847;28;20132;-77
2022/08/08 11:33:23;;;;;;;;;;;25.60;99.90;;;;;;5010875;28;20078;-77
2022/08/08 11:36:13;;;;;;;7.78;0.82;;;25.60;99.90;;;;;;5010479;28;19922;-76
2022/08/08 11:38:45;;;;;;;1.67;1.10;;;25.70;99.90;;;;;;5011044;28;20137;-77
2022/08/08 11:41:25;;;;;;;1.38;0.75;;;25.80;99.90;;;;;;5009325;28;20050;-77
2022/08/08 11:43:59;;;;;;;1.38;0.95;;;25.80;99.90;;;;;;5009656;28;20046;-77
2022/08/08 11:46:28;;;;;;;1.95;0.90;;;25.90;99.90;;;;;;5011149;28;20489;-77
2022/08/08 11:48:58;;;;;;;1.45;0.90;;;26.00;99.90;;;;;;5009834;28;20050;-76
2022/08/08 11:51:25;;;;;;;3.05;0.80;;;26.00;99.90;;;;;;5011014;28;20058;-77
2022/08/08 11:54:07;;;;;;;2.67;0.90;;;26.20;99.90;;;;;;5011212;28;20058;-76
2022/08/08 11:56:54;;;;;;;2.50;1.00;;;26.20;99.90;;;;;;5011202;28;20054;-77
2022/08/08 11:59:31;;;;;;;1.15;0.80;;;26.10;99.90;;;;;;5010672;28;20053;-77
2022/08/08 12:02:18;;;;;;;2.28;1.15;;;26.10;99.90;;;;;;5010344;28;20546;-76
2022/08/08 12:05:06;;;;;;;3.08;0.82;;;26.20;99.90;;;;;;5010294;28;20053;-77
2022/08/08 12:07:50;;;;;;;4.28;1.05;;;26.20;99.90;;;;;;5008115;28;20133;-77
2022/08/08 12:10:21;;;;;;;1.60;0.90;;;26.40;99.90;;;;;;5010089;28;20523;-77
2022/08/08 12:12:49;;;;;;;2.45;1.00;;;26.60;99.90;;;;;;5010891;28;20132;-77
2022/08/08 12:15:29;;;;;;;2.20;0.80;;;26.60;99.90;;;;;;5010473;28;20046;-77
2022/08/08 12:18:18;;;;;;;1.48;0.70;;;26.50;99.90;;;;;;5012822;28;20392;-77
2022/08/08 12:20:55;;;;;;;1.83;0.95;;;26.60;99.90;;;;;;5014173;28;20053;-76
2022/08/08 12:23:32;;;;;;;1.67;0.85;;;26.70;99.90;;;;;;5014287;28;20057;-76
2022/08/08 12:26:20;;;;;;;4.40;1.23;;;26.80;99.90;;;;;;5013790;28;20050;-77
2022/08/08 12:29:21;;;;;;;1.73;0.77;;;26.90;99.90;;;;;;5013368;28;20053;-77
2022/08/08 12:32:12;;;;;;;4.30;0.70;;;27.00;99.90;;;;;;5014167;28;20104;-77
2022/08/08 12:34:57;;;;;;;4.53;2.15;;;26.80;99.90;;;;;;5014015;28;20526;-77
2022/08/08 12:37:39;;;;;;;4.00;1.00;;;27.00;99.90;;;;;;5012976;28;20104;-77
2022/08/08 12:40:14;;;;;;;1.90;0.77;;;27.10;99.90;;;;;;5012370;28;20112;-77
2022/08/08 12:42:50;;;;;;;7.93;0.80;;;27.10;99.90;;;;;;5011667;28;20046;-77
2022/08/08 12:45:18;;;;;;;1.70;1.00;;;27.30;99.90;;;;;;5014157;28;20053;-77
2022/08/08 12:48:19;;;;;;;1.55;0.90;;;27.30;99.90;;;;;;5013475;28;20428;-77
2022/08/08 12:51:05;;;;;;;4.10;0.93;;;27.40;99.90;;;;;;5010358;28;20056;-77
2022/08/08 12:53:54;;;;;;;1.65;0.93;;;27.30;99.90;;;;;;5013997;28;20100;-77
2022/08/08 12:56:36;;;;;;;2.28;0.93;;;27.50;99.90;;;;;;5012910;28;20062;-77
2022/08/08 12:59:26;;;;;;;1.67;1.00;;;27.40;99.90;;;;;;5012492;28;20132;-77
2022/08/08 13:02:27;;;;;;;2.47;1.00;;;27.50;99.90;;;;;;5012388;28;20050;-77
2022/08/08 13:05:00;;;;;;;3.15;1.10;;;27.60;99.90;;;;;;5012396;28;20516;-77
2022/08/08 13:07:40;;;;;;;4.13;1.00;;;27.60;99.90;;;;;;5010880;28;20488;-77
2022/08/08 13:10:34;;;;;;;3.33;0.80;;;27.30;99.90;;;;;;5013376;28;20408;-77
2022/08/08 13:13:02;;;;;;;2.17;1.00;;;27.30;99.90;;;;;;5010940;28;20439;-77
2022/08/08 13:15:35;;;;;;;1.10;0.80;;;27.30;99.90;;;;;;5012961;28;20049;-77
2022/08/08 13:18:03;;;;;;;3.22;1.00;;;27.40;99.90;;;;;;5010230;28;20057;-77
2022/08/08 13:20:45;;;;;;;6.82;0.90;;;27.60;99.90;;;;;;5013465;28;20096;-77
2022/08/08 13:23:18;;;;;;;3.53;0.90;;;27.40;99.90;;;;;;5013577;28;20563;-77
2022/08/08 13:26:03;;;;;;;6.88;0.82;;;27.40;99.90;;;;;;5012361;28;20116;-77
2022/08/08 13:28:40;;;;;;;5.07;0.90;;;27.60;99.90;;;;;;5010180;28;20512;-77
2022/08/08 13:31:12;;;;;;;2.95;0.98;;;27.60;99.90;;;;;;5013184;28;20049;-77
2022/08/08 13:33:45;;;;;;;6.05;1.08;;;27.60;99.90;;;;;;5013146;28;20097;-77
2022/08/08 13:36:16;;;;;;;3.15;0.88;;;27.60;99.90;;;;;;5012981;28;20104;-77
2022/08/08 13:38:43;;;;;;;1.52;0.80;;;27.70;99.90;;;;;;5012503;28;20056;-77
2022/08/08 13:41:10;;;;;;;5.60;1.10;;;27.80;99.90;;;;;;5013157;28;20041;-77
2022/08/08 13:43:46;;;;;;;3.33;1.02;;;27.90;99.90;;;;;;5010654;28;20112;-77
2022/08/08 13:46:17;;;;;;;3.00;1.10;;;27.90;99.90;;;;;;5012974;28;20154;-76
2022/08/08 13:48:55;;;;;;;6.15;0.90;;;28.00;99.90;;;;;;5012474;28;20117;-77
2022/08/08 13:51:38;;;;;;;2.10;0.70;;;28.10;99.90;;;;;;5012591;28;20687;-77
2022/08/08 13:54:21;;;;;;;4.05;1.10;;;28.20;99.90;;;;;;5012415;28;20526;-76
2022/08/08 13:57:13;;;;;;;4.65;0.88;;;28.20;99.90;;;;;;5012802;28;20050;-76
2022/08/08 13:59:45;;;;;;;3.58;0.82;;;28.30;99.90;;;;;;5008874;28;20129;-77
2022/08/08 14:02:18;;;;;;;5.18;1.08;;;28.30;99.90;;;;;;5012575;28;20049;-76
2022/08/08 14:04:59;;;;;;;2.92;0.85;;;28.30;99.90;;;;;;5012384;28;20050;-77
2022/08/08 14:07:47;;;;;;;2.60;0.75;;;28.10;99.90;;;;;;4996062;28;20423;-77
2022/08/08 14:10:19;;;;;;;6.05;1.30;;;28.20;99.90;;;;;;5012243;28;20046;-77